Check out our new PWSWeather beta!
PWSweather.com
Personal Weather Stations
Station Observations
KNCGREEN1000
Bell Orchard Drive, Greensboro, NC 27455

Bell Orchard DriveGreensboro, NC 27455

Lat: 36.132, Lon: -79.8

Elevation: 876

Station Type: Acurite Atlas

Http://www.gilhutcheson.com

High Low Average
Temperature 55.2°F12.9°C 40.5°F4.7°C 47.6°F8.7°C
Dew Point 32.3°F0.2°C 27.9°F-2.3°C 30.0°F-1.1°C
Winds 12.0 mph 19.3 kmh Calm Calm 3.0 mph SW4.8 kmh SW
Wind Gusts -- -- --
Humidity 66% 36% 52%
Pressure 29.92 in1013.2 mb 29.82 in1009.8 mb -
Precipitation 0.00 in0.0 mm - -
Hour Temp Dew Point Humidity Winds Wind Gusts Pressure Precip Precip Rate Daily Precip Total
12:02 AM 49.5°F9.7°C 30.4°F-0.9°C 48% 3.0 mph SW4.8 kmh SW -- 29.83 in1010.2 mb 0.00 in0.0 mm 0.00 in0.0 mm 0.00 in0.0 mm
12:07 AM 49.4°F9.7°C 29.9°F-1.2°C 47% 2.0 mph WSW3.2 kmh WSW -- 29.83 in1010.2 mb 0.00 in0.0 mm 0.00 in0.0 mm 0.00 in0.0 mm
12:12 AM 49.4°F9.7°C 30.4°F-0.9°C 48% 2.0 mph SW3.2 kmh SW -- 29.83 in1010.2 mb 0.00 in0.0 mm 0.00 in0.0 mm 0.00 in0.0 mm
12:17 AM 49.1°F9.5°C 30.6°F-0.8°C 49% 2.0 mph S3.2 kmh S -- 29.83 in1010.2 mb 0.00 in0.0 mm 0.00 in0.0 mm 0.00 in0.0 mm
12:22 AM 48.9°F9.4°C 29.9°F-1.2°C 48% 2.0 mph WSW3.2 kmh WSW -- 29.83 in1010.2 mb 0.00 in0.0 mm 0.00 in0.0 mm 0.00 in0.0 mm
12:27 AM 48.8°F9.3°C 30.3°F-0.9°C 49% 1.0 mph S1.6 kmh S -- 29.83 in1010.2 mb 0.00 in0.0 mm 0.00 in0.0 mm 0.00 in0.0 mm
12:32 AM 48.5°F9.2°C 30.6°F-0.8°C 50% 1.0 mph SSE1.6 kmh SSE -- 29.83 in1010.2 mb 0.00 in0.0 mm 0.00 in0.0 mm 0.00 in0.0 mm
12:37 AM 48.2°F9.0°C 30.3°F-0.9°C 50% Calm Calm -- 29.83 in1010.2 mb 0.00 in0.0 mm 0.00 in0.0 mm 0.00 in0.0 mm
12:42 AM 47.7°F8.7°C 30.7°F-0.7°C 52% 2.0 mph SSW3.2 kmh SSW -- 29.83 in1010.2 mb 0.00 in0.0 mm 0.00 in0.0 mm 0.00 in0.0 mm
12:47 AM 47.3°F8.5°C 31.3°F-0.4°C 54% Calm Calm -- 29.83 in1010.2 mb 0.00 in0.0 mm 0.00 in0.0 mm 0.00 in0.0 mm
12:52 AM 46.7°F8.2°C 31.3°F-0.4°C 55% Calm Calm -- 29.83 in1010.2 mb 0.00 in0.0 mm 0.00 in0.0 mm 0.00 in0.0 mm
12:57 AM 46.1°F7.8°C 31.1°F-0.5°C 56% 1.0 mph SE1.6 kmh SE -- 29.83 in1010.2 mb 0.00 in0.0 mm 0.00 in0.0 mm 0.00 in0.0 mm
01:02 AM 45.6°F7.6°C 30.7°F-0.7°C 56% 3.0 mph N4.8 kmh N -- 29.83 in1010.2 mb 0.00 in0.0 mm 0.00 in0.0 mm 0.00 in0.0 mm
01:07 AM 45.5°F7.5°C 30.1°F-1.1°C 55% Calm Calm -- 29.83 in1010.2 mb 0.00 in0.0 mm 0.00 in0.0 mm 0.00 in0.0 mm
01:12 AM 45.3°F7.4°C 29.9°F-1.2°C 55% 1.0 mph SSW1.6 kmh SSW -- 29.82 in1009.8 mb 0.00 in0.0 mm 0.00 in0.0 mm 0.00 in0.0 mm
01:17 AM 45.4°F7.4°C 29.5°F-1.4°C 54% 2.0 mph SSW3.2 kmh SSW -- 29.82 in1009.8 mb 0.00 in0.0 mm 0.00 in0.0 mm 0.00 in0.0 mm
01:22 AM 45.5°F7.5°C 29.7°F-1.3°C 54% Calm Calm -- 29.83 in1010.2 mb 0.00 in0.0 mm 0.00 in0.0 mm 0.00 in0.0 mm
01:27 AM 45.6°F7.6°C 30.3°F-0.9°C 55% Calm Calm -- 29.83 in1010.2 mb 0.00 in0.0 mm 0.00 in0.0 mm 0.00 in0.0 mm
01:32 AM 45.6°F7.6°C 30.3°F-0.9°C 55% 1.0 mph S1.6 kmh S -- 29.83 in1010.2 mb 0.00 in0.0 mm 0.00 in0.0 mm 0.00 in0.0 mm
01:37 AM 45.4°F7.4°C 29.9°F-1.2°C 55% 2.0 mph SSE3.2 kmh SSE -- 29.83 in1010.2 mb 0.00 in0.0 mm 0.00 in0.0 mm 0.00 in0.0 mm
01:42 AM 45.5°F7.5°C 30.1°F-1.1°C 55% Calm Calm -- 29.83 in1010.2 mb 0.00 in0.0 mm 0.00 in0.0 mm 0.00 in0.0 mm
01:47 AM 45.4°F7.4°C 30.4°F-0.9°C 56% 4.0 mph S6.4 kmh S -- 29.83 in1010.2 mb 0.00 in0.0 mm 0.00 in0.0 mm 0.00 in0.0 mm
01:52 AM 45.2°F7.3°C 30.2°F-1.0°C 56% 2.0 mph S3.2 kmh S -- 29.83 in1010.2 mb 0.00 in0.0 mm 0.00 in0.0 mm 0.00 in0.0 mm
01:57 AM 45.1°F7.3°C 30.7°F-0.7°C 57% 1.0 mph SSE1.6 kmh SSE -- 29.83 in1010.2 mb 0.00 in0.0 mm 0.00 in0.0 mm 0.00 in0.0 mm
02:02 AM 45.0°F7.2°C 30.5°F-0.8°C 57% 2.0 mph NW3.2 kmh NW -- 29.83 in1010.2 mb 0.00 in0.0 mm 0.00 in0.0 mm 0.00 in0.0 mm
02:07 AM 45.1°F7.3°C 30.2°F-1.0°C 56% Calm Calm -- 29.84 in1010.5 mb 0.00 in0.0 mm 0.00 in0.0 mm 0.00 in0.0 mm
02:12 AM 45.2°F7.3°C 31.1°F-0.5°C 58% 2.0 mph SSE3.2 kmh SSE -- 29.84 in1010.5 mb 0.00 in0.0 mm 0.00 in0.0 mm 0.00 in0.0 mm
02:17 AM 45.1°F7.3°C 30.7°F-0.7°C 57% 1.0 mph SE1.6 kmh SE -- 29.83 in1010.2 mb 0.00 in0.0 mm 0.00 in0.0 mm 0.00 in0.0 mm
02:22 AM 45.2°F7.3°C 30.7°F-0.7°C 57% 2.0 mph SSE3.2 kmh SSE -- 29.84 in1010.5 mb 0.00 in0.0 mm 0.00 in0.0 mm 0.00 in0.0 mm
02:27 AM 45.1°F7.3°C 31.1°F-0.5°C 58% 4.0 mph NW6.4 kmh NW -- 29.84 in1010.5 mb 0.00 in0.0 mm 0.00 in0.0 mm 0.00 in0.0 mm
02:32 AM 45.3°F7.4°C 30.8°F-0.7°C 57% 3.0 mph WSW4.8 kmh WSW -- 29.84 in1010.5 mb 0.00 in0.0 mm 0.00 in0.0 mm 0.00 in0.0 mm
02:37 AM 45.2°F7.3°C 30.7°F-0.7°C 57% 2.0 mph SSW3.2 kmh SSW -- 29.84 in1010.5 mb 0.00 in0.0 mm 0.00 in0.0 mm 0.00 in0.0 mm
02:42 AM 45.1°F7.3°C 31.1°F-0.5°C 58% 4.0 mph W6.4 kmh W -- 29.84 in1010.5 mb 0.00 in0.0 mm 0.00 in0.0 mm 0.00 in0.0 mm
02:47 AM 44.9°F7.2°C 30.9°F-0.6°C 58% 1.0 mph SW1.6 kmh SW -- 29.84 in1010.5 mb 0.00 in0.0 mm 0.00 in0.0 mm 0.00 in0.0 mm
02:52 AM 44.8°F7.1°C 30.8°F-0.7°C 58% 1.0 mph SSE1.6 kmh SSE -- 29.84 in1010.5 mb 0.00 in0.0 mm 0.00 in0.0 mm 0.00 in0.0 mm
02:57 AM 44.7°F7.1°C 31.2°F-0.4°C 59% 2.0 mph NW3.2 kmh NW -- 29.85 in1010.8 mb 0.00 in0.0 mm 0.00 in0.0 mm 0.00 in0.0 mm
03:02 AM 44.6°F7.0°C 31.0°F-0.6°C 59% 2.0 mph S3.2 kmh S -- 29.84 in1010.5 mb 0.00 in0.0 mm 0.00 in0.0 mm 0.00 in0.0 mm
03:07 AM 44.5°F6.9°C 30.8°F-0.7°C 59% 1.0 mph S1.6 kmh S -- 29.84 in1010.5 mb 0.00 in0.0 mm 0.00 in0.0 mm 0.00 in0.0 mm
03:12 AM 44.3°F6.8°C 30.7°F-0.7°C 59% 2.0 mph S3.2 kmh S -- 29.84 in1010.5 mb 0.00 in0.0 mm 0.00 in0.0 mm 0.00 in0.0 mm
03:17 AM 44.2°F6.8°C 30.7°F-0.7°C 59% Calm Calm -- 29.84 in1010.5 mb 0.00 in0.0 mm 0.00 in0.0 mm 0.00 in0.0 mm
03:22 AM 44.0°F6.7°C 30.9°F-0.6°C 60% 3.0 mph SSW4.8 kmh SSW -- 29.85 in1010.8 mb 0.00 in0.0 mm 0.00 in0.0 mm 0.00 in0.0 mm
03:27 AM 43.9°F6.6°C 30.7°F-0.7°C 60% 1.0 mph SE1.6 kmh SE -- 29.85 in1010.8 mb 0.00 in0.0 mm 0.00 in0.0 mm 0.00 in0.0 mm
03:32 AM 43.9°F6.6°C 30.3°F-0.9°C 59% Calm Calm -- 29.84 in1010.5 mb 0.00 in0.0 mm 0.00 in0.0 mm 0.00 in0.0 mm
03:42 AM 43.7°F6.5°C 30.6°F-0.8°C 60% Calm Calm -- 29.84 in1010.5 mb 0.00 in0.0 mm 0.00 in0.0 mm 0.00 in0.0 mm
03:47 AM 43.5°F6.4°C 30.4°F-0.9°C 60% 1.0 mph NW1.6 kmh NW -- 29.84 in1010.5 mb 0.00 in0.0 mm 0.00 in0.0 mm 0.00 in0.0 mm
03:52 AM 43.3°F6.3°C 30.6°F-0.8°C 61% 2.0 mph WNW3.2 kmh WNW -- 29.84 in1010.5 mb 0.00 in0.0 mm 0.00 in0.0 mm 0.00 in0.0 mm
03:57 AM 42.9°F6.1°C 30.7°F-0.7°C 62% 2.0 mph SSW3.2 kmh SSW -- 29.85 in1010.8 mb 0.00 in0.0 mm 0.00 in0.0 mm 0.00 in0.0 mm
04:02 AM 42.9°F6.1°C 30.7°F-0.7°C 62% 2.0 mph SSW3.2 kmh SSW -- 29.84 in1010.5 mb 0.00 in0.0 mm 0.00 in0.0 mm 0.00 in0.0 mm
04:07 AM 42.7°F5.9°C 30.0°F-1.1°C 61% 1.0 mph SW1.6 kmh SW -- 29.85 in1010.8 mb 0.00 in0.0 mm 0.00 in0.0 mm 0.00 in0.0 mm
04:12 AM 42.6°F5.9°C 30.4°F-0.9°C 62% 1.0 mph S1.6 kmh S -- 29.85 in1010.8 mb 0.00 in0.0 mm 0.00 in0.0 mm 0.00 in0.0 mm
04:17 AM 42.5°F5.8°C 30.2°F-1.0°C 62% 1.0 mph E1.6 kmh E -- 29.84 in1010.5 mb 0.00 in0.0 mm 0.00 in0.0 mm 0.00 in0.0 mm
04:22 AM 42.3°F5.7°C 30.4°F-0.9°C 63% 1.0 mph SSW1.6 kmh SSW -- 29.85 in1010.8 mb 0.00 in0.0 mm 0.00 in0.0 mm 0.00 in0.0 mm
04:27 AM 42.2°F5.7°C 30.8°F-0.7°C 64% 2.0 mph SSW3.2 kmh SSW -- 29.85 in1010.8 mb 0.00 in0.0 mm 0.00 in0.0 mm 0.00 in0.0 mm
04:32 AM 41.8°F5.4°C 29.9°F-1.2°C 63% 1.0 mph SE1.6 kmh SE -- 29.85 in1010.8 mb 0.00 in0.0 mm 0.00 in0.0 mm 0.00 in0.0 mm
04:37 AM 41.7°F5.4°C 30.3°F-0.9°C 64% 2.0 mph SW3.2 kmh SW -- 29.85 in1010.8 mb 0.00 in0.0 mm 0.00 in0.0 mm 0.00 in0.0 mm
04:42 AM 41.6°F5.3°C 30.5°F-0.8°C 65% 3.0 mph NW4.8 kmh NW -- 29.85 in1010.8 mb 0.00 in0.0 mm 0.00 in0.0 mm 0.00 in0.0 mm
04:47 AM 41.7°F5.4°C 30.3°F-0.9°C 64% Calm Calm -- 29.85 in1010.8 mb 0.00 in0.0 mm 0.00 in0.0 mm 0.00 in0.0 mm
04:52 AM 41.9°F5.5°C 30.1°F-1.1°C 63% 1.0 mph S1.6 kmh S -- 29.85 in1010.8 mb 0.00 in0.0 mm 0.00 in0.0 mm 0.00 in0.0 mm
04:57 AM 41.8°F5.4°C 30.3°F-0.9°C 64% Calm Calm -- 29.86 in1011.2 mb 0.00 in0.0 mm 0.00 in0.0 mm 0.00 in0.0 mm
05:02 AM 41.6°F5.3°C 29.7°F-1.3°C 63% Calm Calm -- 29.86 in1011.2 mb 0.00 in0.0 mm 0.00 in0.0 mm 0.00 in0.0 mm
05:07 AM 41.6°F5.3°C 30.1°F-1.1°C 64% Calm Calm -- 29.86 in1011.2 mb 0.00 in0.0 mm 0.00 in0.0 mm 0.00 in0.0 mm
05:12 AM 41.2°F5.1°C 29.8°F-1.2°C 64% 3.0 mph S4.8 kmh S -- 29.86 in1011.2 mb 0.00 in0.0 mm 0.00 in0.0 mm 0.00 in0.0 mm
05:17 AM 41.2°F5.1°C 29.8°F-1.2°C 64% 1.0 mph W1.6 kmh W -- 29.86 in1011.2 mb 0.00 in0.0 mm 0.00 in0.0 mm 0.00 in0.0 mm
05:22 AM 41.0°F5.0°C 30.0°F-1.1°C 65% 1.0 mph SSW1.6 kmh SSW -- 29.86 in1011.2 mb 0.00 in0.0 mm 0.00 in0.0 mm 0.00 in0.0 mm
05:27 AM 41.1°F5.1°C 29.8°F-1.2°C 64% 1.0 mph SSW1.6 kmh SSW -- 29.86 in1011.2 mb 0.00 in0.0 mm 0.00 in0.0 mm 0.00 in0.0 mm
05:32 AM 41.0°F5.0°C 29.6°F-1.3°C 64% Calm Calm -- 29.86 in1011.2 mb 0.00 in0.0 mm 0.00 in0.0 mm 0.00 in0.0 mm
05:37 AM 41.1°F5.1°C 30.2°F-1.0°C 65% 2.0 mph WSW3.2 kmh WSW -- 29.86 in1011.2 mb 0.00 in0.0 mm 0.00 in0.0 mm 0.00 in0.0 mm
05:42 AM 40.9°F4.9°C 29.8°F-1.2°C 65% Calm Calm -- 29.86 in1011.2 mb 0.00 in0.0 mm 0.00 in0.0 mm 0.00 in0.0 mm
05:47 AM 40.8°F4.9°C 29.8°F-1.2°C 65% 1.0 mph S1.6 kmh S -- 29.86 in1011.2 mb 0.00 in0.0 mm 0.00 in0.0 mm 0.00 in0.0 mm
05:52 AM 40.8°F4.9°C 29.8°F-1.2°C 65% 3.0 mph SW4.8 kmh SW -- 29.86 in1011.2 mb 0.00 in0.0 mm 0.00 in0.0 mm 0.00 in0.0 mm
05:57 AM 40.9°F4.9°C 29.5°F-1.4°C 64% Calm Calm -- 29.86 in1011.2 mb 0.00 in0.0 mm 0.00 in0.0 mm 0.00 in0.0 mm
06:02 AM 40.8°F4.9°C 29.8°F-1.2°C 65% Calm Calm -- 29.86 in1011.2 mb 0.00 in0.0 mm 0.00 in0.0 mm 0.00 in0.0 mm
06:07 AM 40.6°F4.8°C 30.0°F-1.1°C 66% 3.0 mph NW4.8 kmh NW -- 29.86 in1011.2 mb 0.00 in0.0 mm 0.00 in0.0 mm 0.00 in0.0 mm
06:12 AM 40.5°F4.7°C 29.9°F-1.2°C 66% 1.0 mph S1.6 kmh S -- 29.86 in1011.2 mb 0.00 in0.0 mm 0.00 in0.0 mm 0.00 in0.0 mm
06:17 AM 40.7°F4.8°C 30.0°F-1.1°C 66% 1.0 mph SW1.6 kmh SW -- 29.87 in1011.5 mb 0.00 in0.0 mm 0.00 in0.0 mm 0.00 in0.0 mm
06:22 AM 40.6°F4.8°C 29.7°F-1.3°C 65% 3.0 mph ENE4.8 kmh ENE -- 29.87 in1011.5 mb 0.00 in0.0 mm 0.00 in0.0 mm 0.00 in0.0 mm
06:27 AM 41.0°F5.0°C 29.6°F-1.3°C 64% 3.0 mph WSW4.8 kmh WSW -- 29.87 in1011.5 mb 0.00 in0.0 mm 0.00 in0.0 mm 0.00 in0.0 mm
06:32 AM 41.3°F5.2°C 29.6°F-1.3°C 63% 1.0 mph SW1.6 kmh SW -- 29.87 in1011.5 mb 0.00 in0.0 mm 0.00 in0.0 mm 0.00 in0.0 mm
06:37 AM 41.5°F5.3°C 29.7°F-1.3°C 63% 3.0 mph SE4.8 kmh SE -- 29.87 in1011.5 mb 0.00 in0.0 mm 0.00 in0.0 mm 0.00 in0.0 mm
06:42 AM 41.3°F5.2°C 29.6°F-1.3°C 63% 2.0 mph SW3.2 kmh SW -- 29.87 in1011.5 mb 0.00 in0.0 mm 0.00 in0.0 mm 0.00 in0.0 mm
06:47 AM 41.3°F5.2°C 29.6°F-1.3°C 63% 2.0 mph WNW3.2 kmh WNW -- 29.87 in1011.5 mb 0.00 in0.0 mm 0.00 in0.0 mm 0.00 in0.0 mm
06:54 AM 41.3°F5.2°C 29.6°F-1.3°C 63% 1.0 mph SW1.6 kmh SW -- 29.87 in1011.5 mb 0.00 in0.0 mm 0.00 in0.0 mm 0.00 in0.0 mm
06:57 AM 40.9°F4.9°C 29.5°F-1.4°C 64% Calm Calm -- 29.87 in1011.5 mb 0.00 in0.0 mm 0.00 in0.0 mm 0.00 in0.0 mm
07:02 AM 40.8°F4.9°C 29.5°F-1.4°C 64% 3.0 mph WSW4.8 kmh WSW -- 29.87 in1011.5 mb 0.00 in0.0 mm 0.00 in0.0 mm 0.00 in0.0 mm
07:07 AM 40.8°F4.9°C 29.5°F-1.4°C 64% 3.0 mph SW4.8 kmh SW -- 29.88 in1011.9 mb 0.00 in0.0 mm 0.00 in0.0 mm 0.00 in0.0 mm
07:12 AM 40.8°F4.9°C 29.5°F-1.4°C 64% 2.0 mph SSE3.2 kmh SSE -- 29.88 in1011.9 mb 0.00 in0.0 mm 0.00 in0.0 mm 0.00 in0.0 mm
07:17 AM 40.9°F4.9°C 29.5°F-1.4°C 64% 1.0 mph S1.6 kmh S -- 29.88 in1011.9 mb 0.00 in0.0 mm 0.00 in0.0 mm 0.00 in0.0 mm
07:22 AM 40.8°F4.9°C 29.5°F-1.4°C 64% 1.0 mph WSW1.6 kmh WSW -- 29.88 in1011.9 mb 0.00 in0.0 mm 0.00 in0.0 mm 0.00 in0.0 mm
07:27 AM 40.7°F4.8°C 29.7°F-1.3°C 65% Calm Calm -- 29.88 in1011.9 mb 0.00 in0.0 mm 0.00 in0.0 mm 0.00 in0.0 mm
07:32 AM 40.6°F4.8°C 29.7°F-1.3°C 65% 1.0 mph S1.6 kmh S -- 29.87 in1011.5 mb 0.00 in0.0 mm 0.00 in0.0 mm 0.00 in0.0 mm
07:37 AM 40.5°F4.7°C 29.5°F-1.4°C 65% 1.0 mph SE1.6 kmh SE -- 29.88 in1011.9 mb 0.00 in0.0 mm 0.00 in0.0 mm 0.00 in0.0 mm
07:42 AM 40.5°F4.7°C 29.5°F-1.4°C 65% 2.0 mph SSW3.2 kmh SSW -- 29.88 in1011.9 mb 0.00 in0.0 mm 0.00 in0.0 mm 0.00 in0.0 mm
07:47 AM 40.6°F4.8°C 29.3°F-1.5°C 64% 1.0 mph SSW1.6 kmh SSW -- 29.88 in1011.9 mb 0.00 in0.0 mm 0.00 in0.0 mm 0.00 in0.0 mm
07:52 AM 40.7°F4.8°C 29.7°F-1.3°C 65% 1.0 mph SSE1.6 kmh SSE -- 29.88 in1011.9 mb 0.00 in0.0 mm 0.00 in0.0 mm 0.00 in0.0 mm
07:57 AM 40.8°F4.9°C 29.8°F-1.2°C 65% 2.0 mph SSW3.2 kmh SSW -- 29.88 in1011.9 mb 0.00 in0.0 mm 0.00 in0.0 mm 0.00 in0.0 mm
08:02 AM 41.0°F5.0°C 29.6°F-1.3°C 64% 2.0 mph WNW3.2 kmh WNW -- 29.88 in1011.9 mb 0.00 in0.0 mm 0.00 in0.0 mm 0.00 in0.0 mm
08:07 AM 41.4°F5.2°C 30.0°F-1.1°C 64% 2.0 mph SSW3.2 kmh SSW -- 29.88 in1011.9 mb 0.00 in0.0 mm 0.00 in0.0 mm 0.00 in0.0 mm
08:12 AM 41.7°F5.4°C 29.9°F-1.2°C 63% 1.0 mph SSW1.6 kmh SSW -- 29.89 in1012.2 mb 0.00 in0.0 mm 0.00 in0.0 mm 0.00 in0.0 mm
08:17 AM 41.9°F5.5°C 30.1°F-1.1°C 63% Calm Calm -- 29.89 in1012.2 mb 0.00 in0.0 mm 0.00 in0.0 mm 0.00 in0.0 mm
08:22 AM 41.9°F5.5°C 30.1°F-1.1°C 63% 2.0 mph S3.2 kmh S -- 29.88 in1011.9 mb 0.00 in0.0 mm 0.00 in0.0 mm 0.00 in0.0 mm
08:27 AM 42.1°F5.6°C 30.6°F-0.8°C 64% 3.0 mph WSW4.8 kmh WSW -- 29.89 in1012.2 mb 0.00 in0.0 mm 0.00 in0.0 mm 0.00 in0.0 mm
08:32 AM 42.2°F5.7°C 30.0°F-1.1°C 62% 5.0 mph S8.0 kmh S -- 29.89 in1012.2 mb 0.00 in0.0 mm 0.00 in0.0 mm 0.00 in0.0 mm
08:37 AM 42.5°F5.8°C 30.2°F-1.0°C 62% Calm Calm -- 29.89 in1012.2 mb 0.00 in0.0 mm 0.00 in0.0 mm 0.00 in0.0 mm
08:42 AM 42.8°F6.0°C 30.5°F-0.8°C 62% Calm Calm -- 29.89 in1012.2 mb 0.00 in0.0 mm 0.00 in0.0 mm 0.00 in0.0 mm
08:47 AM 42.9°F6.1°C 30.3°F-0.9°C 61% 2.0 mph WSW3.2 kmh WSW -- 29.90 in1012.5 mb 0.00 in0.0 mm 0.00 in0.0 mm 0.00 in0.0 mm
08:52 AM 43.2°F6.2°C 30.1°F-1.1°C 60% 3.0 mph SW4.8 kmh SW -- 29.90 in1012.5 mb 0.00 in0.0 mm 0.00 in0.0 mm 0.00 in0.0 mm
08:57 AM 43.4°F6.3°C 30.2°F-1.0°C 60% 3.0 mph W4.8 kmh W -- 29.89 in1012.2 mb 0.00 in0.0 mm 0.00 in0.0 mm 0.00 in0.0 mm
09:02 AM 43.5°F6.4°C 30.8°F-0.7°C 61% 2.0 mph S3.2 kmh S -- 29.90 in1012.5 mb 0.00 in0.0 mm 0.00 in0.0 mm 0.00 in0.0 mm
09:07 AM 43.7°F6.5°C 30.6°F-0.8°C 60% 4.0 mph NW6.4 kmh NW -- 29.90 in1012.5 mb 0.00 in0.0 mm 0.00 in0.0 mm 0.00 in0.0 mm
09:12 AM 44.1°F6.7°C 30.5°F-0.8°C 59% 3.0 mph W4.8 kmh W -- 29.90 in1012.5 mb 0.00 in0.0 mm 0.00 in0.0 mm 0.00 in0.0 mm
09:17 AM 44.4°F6.9°C 30.4°F-0.9°C 58% 3.0 mph W4.8 kmh W -- 29.90 in1012.5 mb 0.00 in0.0 mm 0.00 in0.0 mm 0.00 in0.0 mm
09:22 AM 44.7°F7.1°C 31.2°F-0.4°C 59% 3.0 mph NW4.8 kmh NW -- 29.90 in1012.5 mb 0.00 in0.0 mm 0.00 in0.0 mm 0.00 in0.0 mm
09:27 AM 44.8°F7.1°C 30.8°F-0.7°C 58% 4.0 mph WSW6.4 kmh WSW -- 29.91 in1012.9 mb 0.00 in0.0 mm 0.00 in0.0 mm 0.00 in0.0 mm
09:32 AM 45.1°F7.3°C 31.5°F-0.3°C 59% 3.0 mph E4.8 kmh E -- 29.91 in1012.9 mb 0.00 in0.0 mm 0.00 in0.0 mm 0.00 in0.0 mm
09:37 AM 45.4°F7.4°C 30.8°F-0.7°C 57% 6.0 mph W9.7 kmh W -- 29.91 in1012.9 mb 0.00 in0.0 mm 0.00 in0.0 mm 0.00 in0.0 mm
09:42 AM 45.7°F7.6°C 31.2°F-0.4°C 57% 4.0 mph S6.4 kmh S -- 29.92 in1013.2 mb 0.00 in0.0 mm 0.00 in0.0 mm 0.00 in0.0 mm
09:47 AM 46.3°F7.9°C 31.2°F-0.4°C 56% 4.0 mph NW6.4 kmh NW -- 29.91 in1012.9 mb 0.00 in0.0 mm 0.00 in0.0 mm 0.00 in0.0 mm
09:52 AM 46.8°F8.2°C 30.8°F-0.7°C 54% 3.0 mph W4.8 kmh W -- 29.92 in1013.2 mb 0.00 in0.0 mm 0.00 in0.0 mm 0.00 in0.0 mm
09:57 AM 47.4°F8.6°C 31.0°F-0.6°C 53% 4.0 mph NW6.4 kmh NW -- 29.92 in1013.2 mb 0.00 in0.0 mm 0.00 in0.0 mm 0.00 in0.0 mm
10:02 AM 47.8°F8.8°C 32.3°F0.2°C 55% 3.0 mph NE4.8 kmh NE -- 29.92 in1013.2 mb 0.00 in0.0 mm 0.00 in0.0 mm 0.00 in0.0 mm
10:07 AM 48.0°F8.9°C 31.1°F-0.5°C 52% 4.0 mph NNW6.4 kmh NNW -- 29.92 in1013.2 mb 0.00 in0.0 mm 0.00 in0.0 mm 0.00 in0.0 mm
10:12 AM 48.4°F9.1°C 31.4°F-0.3°C 52% 3.0 mph W4.8 kmh W -- 29.92 in1013.2 mb 0.00 in0.0 mm 0.00 in0.0 mm 0.00 in0.0 mm
10:17 AM 48.3°F9.1°C 30.4°F-0.9°C 50% 8.0 mph WSW12.9 kmh WSW -- 29.92 in1013.2 mb 0.00 in0.0 mm 0.00 in0.0 mm 0.00 in0.0 mm
10:22 AM 48.5°F9.2°C 30.1°F-1.1°C 49% 8.0 mph NNE12.9 kmh NNE -- 29.92 in1013.2 mb 0.00 in0.0 mm 0.00 in0.0 mm 0.00 in0.0 mm
10:27 AM 48.7°F9.3°C 30.8°F-0.7°C 50% 7.0 mph NW11.3 kmh NW -- 29.92 in1013.2 mb 0.00 in0.0 mm 0.00 in0.0 mm 0.00 in0.0 mm
10:32 AM 48.9°F9.4°C 30.4°F-0.9°C 49% 5.0 mph NW8.0 kmh NW -- 29.92 in1013.2 mb 0.00 in0.0 mm 0.00 in0.0 mm 0.00 in0.0 mm
10:37 AM 49.5°F9.7°C 30.9°F-0.6°C 49% 2.0 mph SSW3.2 kmh SSW -- 29.91 in1012.9 mb 0.00 in0.0 mm 0.00 in0.0 mm 0.00 in0.0 mm
10:42 AM 49.9°F9.9°C 29.7°F-1.3°C 46% 3.0 mph SW4.8 kmh SW -- 29.91 in1012.9 mb 0.00 in0.0 mm 0.00 in0.0 mm 0.00 in0.0 mm
10:47 AM 50.2°F10.1°C 31.1°F-0.5°C 48% 3.0 mph N4.8 kmh N -- 29.91 in1012.9 mb 0.00 in0.0 mm 0.00 in0.0 mm 0.00 in0.0 mm
10:52 AM 50.3°F10.2°C 30.2°F-1.0°C 46% 2.0 mph S3.2 kmh S -- 29.91 in1012.9 mb 0.00 in0.0 mm 0.00 in0.0 mm 0.00 in0.0 mm
10:57 AM 50.0°F10.0°C 29.9°F-1.2°C 46% 9.0 mph SW14.5 kmh SW -- 29.91 in1012.9 mb 0.00 in0.0 mm 0.00 in0.0 mm 0.00 in0.0 mm
11:02 AM 50.0°F10.0°C 29.3°F-1.5°C 45% 9.0 mph N14.5 kmh N -- 29.91 in1012.9 mb 0.00 in0.0 mm 0.00 in0.0 mm 0.00 in0.0 mm
11:07 AM 50.0°F10.0°C 29.9°F-1.2°C 46% 2.0 mph 3.2 kmh -- 29.91 in1012.9 mb 0.00 in0.0 mm 0.00 in0.0 mm 0.00 in0.0 mm
11:12 AM 50.2°F10.1°C 29.5°F-1.4°C 45% 7.0 mph WSW11.3 kmh WSW -- 29.90 in1012.5 mb 0.00 in0.0 mm 0.00 in0.0 mm 0.00 in0.0 mm
11:17 AM 50.4°F10.2°C 29.6°F-1.3°C 45% 3.0 mph N4.8 kmh N -- 29.90 in1012.5 mb 0.00 in0.0 mm 0.00 in0.0 mm 0.00 in0.0 mm
11:22 AM 50.6°F10.3°C 30.3°F-0.9°C 46% 3.0 mph SW4.8 kmh SW -- 29.90 in1012.5 mb 0.00 in0.0 mm 0.00 in0.0 mm 0.00 in0.0 mm
11:27 AM 50.7°F10.4°C 30.0°F-1.1°C 45% 3.0 mph SE4.8 kmh SE -- 29.90 in1012.5 mb 0.00 in0.0 mm 0.00 in0.0 mm 0.00 in0.0 mm
11:32 AM 51.1°F10.6°C 30.8°F-0.7°C 46% 2.0 mph NNW3.2 kmh NNW -- 29.90 in1012.5 mb 0.00 in0.0 mm 0.00 in0.0 mm 0.00 in0.0 mm
11:37 AM 51.3°F10.7°C 29.3°F-1.5°C 43% 7.0 mph W11.3 kmh W -- 29.89 in1012.2 mb 0.00 in0.0 mm 0.00 in0.0 mm 0.00 in0.0 mm
11:42 AM 51.3°F10.7°C 29.3°F-1.5°C 43% 6.0 mph WNW9.7 kmh WNW -- 29.89 in1012.2 mb 0.00 in0.0 mm 0.00 in0.0 mm 0.00 in0.0 mm
11:47 AM 51.2°F10.7°C 29.9°F-1.2°C 44% 4.0 mph NE6.4 kmh NE -- 29.89 in1012.2 mb 0.00 in0.0 mm 0.00 in0.0 mm 0.00 in0.0 mm
11:52 AM 51.6°F10.9°C 30.2°F-1.0°C 44% 5.0 mph NW8.0 kmh NW -- 29.89 in1012.2 mb 0.00 in0.0 mm 0.00 in0.0 mm 0.00 in0.0 mm
11:57 AM 51.6°F10.9°C 29.7°F-1.3°C 43% 2.0 mph SSW3.2 kmh SSW -- 29.89 in1012.2 mb 0.00 in0.0 mm 0.00 in0.0 mm 0.00 in0.0 mm
12:02 PM 52.2°F11.2°C 29.6°F-1.3°C 42% 6.0 mph WSW9.7 kmh WSW -- 29.88 in1011.9 mb 0.00 in0.0 mm 0.00 in0.0 mm 0.00 in0.0 mm
12:07 PM 52.2°F11.2°C 30.7°F-0.7°C 44% 5.0 mph W8.0 kmh W -- 29.88 in1011.9 mb 0.00 in0.0 mm 0.00 in0.0 mm 0.00 in0.0 mm
12:12 PM 52.7°F11.5°C 30.1°F-1.1°C 42% 10.0 mph NW16.1 kmh NW -- 29.88 in1011.9 mb 0.00 in0.0 mm 0.00 in0.0 mm 0.00 in0.0 mm
12:17 PM 53.0°F11.7°C 30.4°F-0.9°C 42% 6.0 mph NW9.7 kmh NW -- 29.87 in1011.5 mb 0.00 in0.0 mm 0.00 in0.0 mm 0.00 in0.0 mm
12:22 PM 52.3°F11.3°C 29.7°F-1.3°C 42% 2.0 mph E3.2 kmh E -- 29.87 in1011.5 mb 0.00 in0.0 mm 0.00 in0.0 mm 0.00 in0.0 mm
12:27 PM 52.9°F11.6°C 30.2°F-1.0°C 42% 3.0 mph WNW4.8 kmh WNW -- 29.87 in1011.5 mb 0.00 in0.0 mm 0.00 in0.0 mm 0.00 in0.0 mm
12:32 PM 54.0°F12.2°C 30.6°F-0.8°C 41% 4.0 mph NW6.4 kmh NW -- 29.87 in1011.5 mb 0.00 in0.0 mm 0.00 in0.0 mm 0.00 in0.0 mm
12:37 PM 54.2°F12.3°C 29.5°F-1.4°C 39% 8.0 mph N12.9 kmh N -- 29.87 in1011.5 mb 0.00 in0.0 mm 0.00 in0.0 mm 0.00 in0.0 mm
12:42 PM 54.4°F12.4°C 30.3°F-0.9°C 40% 7.0 mph WNW11.3 kmh WNW -- 29.86 in1011.2 mb 0.00 in0.0 mm 0.00 in0.0 mm 0.00 in0.0 mm
12:47 PM 54.9°F12.7°C 31.4°F-0.3°C 41% 5.0 mph SW8.0 kmh SW -- 29.86 in1011.2 mb 0.00 in0.0 mm 0.00 in0.0 mm 0.00 in0.0 mm
12:52 PM 55.1°F12.8°C 30.4°F-0.9°C 39% 3.0 mph WNW4.8 kmh WNW -- 29.86 in1011.2 mb 0.00 in0.0 mm 0.00 in0.0 mm 0.00 in0.0 mm
12:57 PM 55.0°F12.8°C 31.6°F-0.2°C 41% 6.0 mph NW9.7 kmh NW -- 29.86 in1011.2 mb 0.00 in0.0 mm 0.00 in0.0 mm 0.00 in0.0 mm
01:02 PM 54.0°F12.2°C 29.4°F-1.4°C 39% 3.0 mph E4.8 kmh E -- 29.86 in1011.2 mb 0.00 in0.0 mm 0.00 in0.0 mm 0.00 in0.0 mm
01:07 PM 54.0°F12.2°C 30.0°F-1.1°C 40% 2.0 mph SSE3.2 kmh SSE -- 29.86 in1011.2 mb 0.00 in0.0 mm 0.00 in0.0 mm 0.00 in0.0 mm
01:12 PM 53.7°F12.1°C 29.8°F-1.2°C 40% 6.0 mph NW9.7 kmh NW -- 29.86 in1011.2 mb 0.00 in0.0 mm 0.00 in0.0 mm 0.00 in0.0 mm
01:17 PM 53.6°F12.0°C 30.3°F-0.9°C 41% 8.0 mph NW12.9 kmh NW -- 29.85 in1010.8 mb 0.00 in0.0 mm 0.00 in0.0 mm 0.00 in0.0 mm
01:22 PM 53.8°F12.1°C 29.8°F-1.2°C 40% 11.0 mph E17.7 kmh E -- 29.85 in1010.8 mb 0.00 in0.0 mm 0.00 in0.0 mm 0.00 in0.0 mm
01:27 PM 53.7°F12.1°C 28.6°F-1.9°C 38% 7.0 mph WSW11.3 kmh WSW -- 29.85 in1010.8 mb 0.00 in0.0 mm 0.00 in0.0 mm 0.00 in0.0 mm
01:32 PM 54.2°F12.3°C 29.5°F-1.4°C 39% 5.0 mph NW8.0 kmh NW -- 29.85 in1010.8 mb 0.00 in0.0 mm 0.00 in0.0 mm 0.00 in0.0 mm
01:37 PM 54.0°F12.2°C 28.1°F-2.2°C 37% 9.0 mph N14.5 kmh N -- 29.84 in1010.5 mb 0.00 in0.0 mm 0.00 in0.0 mm 0.00 in0.0 mm
01:42 PM 54.4°F12.4°C 29.1°F-1.6°C 38% 8.0 mph SW12.9 kmh SW -- 29.85 in1010.8 mb 0.00 in0.0 mm 0.00 in0.0 mm 0.00 in0.0 mm
01:47 PM 53.9°F12.2°C 28.1°F-2.2°C 37% 4.0 mph W6.4 kmh W -- 29.85 in1010.8 mb 0.00 in0.0 mm 0.00 in0.0 mm 0.00 in0.0 mm
01:52 PM 54.5°F12.5°C 29.9°F-1.2°C 39% 2.0 mph SE3.2 kmh SE -- 29.84 in1010.5 mb 0.00 in0.0 mm 0.00 in0.0 mm 0.00 in0.0 mm
01:57 PM 54.7°F12.6°C 28.7°F-1.8°C 37% 4.0 mph S6.4 kmh S -- 29.84 in1010.5 mb 0.00 in0.0 mm 0.00 in0.0 mm 0.00 in0.0 mm
02:02 PM 54.9°F12.7°C 29.5°F-1.4°C 38% 4.0 mph SSW6.4 kmh SSW -- 29.84 in1010.5 mb 0.00 in0.0 mm 0.00 in0.0 mm 0.00 in0.0 mm
02:07 PM 55.2°F12.9°C 29.2°F-1.6°C 37% 4.0 mph SW6.4 kmh SW -- 29.84 in1010.5 mb 0.00 in0.0 mm 0.00 in0.0 mm 0.00 in0.0 mm
02:12 PM 55.2°F12.9°C 28.5°F-1.9°C 36% 8.0 mph NW12.9 kmh NW -- 29.84 in1010.5 mb 0.00 in0.0 mm 0.00 in0.0 mm 0.00 in0.0 mm
02:17 PM 54.9°F12.7°C 28.9°F-1.7°C 37% 4.0 mph W6.4 kmh W -- 29.84 in1010.5 mb 0.00 in0.0 mm 0.00 in0.0 mm 0.00 in0.0 mm
02:22 PM 54.5°F12.5°C 27.9°F-2.3°C 36% 9.0 mph WNW14.5 kmh WNW -- 29.84 in1010.5 mb 0.00 in0.0 mm 0.00 in0.0 mm 0.00 in0.0 mm
02:27 PM 54.3°F12.4°C 29.1°F-1.6°C 38% 6.0 mph NW9.7 kmh NW -- 29.84 in1010.5 mb 0.00 in0.0 mm 0.00 in0.0 mm 0.00 in0.0 mm
02:32 PM 54.8°F12.7°C 30.8°F-0.7°C 40% 3.0 mph NE4.8 kmh NE -- 29.84 in1010.5 mb 0.00 in0.0 mm 0.00 in0.0 mm 0.00 in0.0 mm
02:37 PM 54.7°F12.6°C 30.0°F-1.1°C 39% 4.0 mph SE6.4 kmh SE -- 29.84 in1010.5 mb 0.00 in0.0 mm 0.00 in0.0 mm 0.00 in0.0 mm
02:42 PM 54.9°F12.7°C 30.2°F-1.0°C 39% 3.0 mph SW4.8 kmh SW -- 29.84 in1010.5 mb 0.00 in0.0 mm 0.00 in0.0 mm 0.00 in0.0 mm
02:47 PM 54.5°F12.5°C 29.2°F-1.6°C 38% 12.0 mph W19.3 kmh W -- 29.84 in1010.5 mb 0.00 in0.0 mm 0.00 in0.0 mm 0.00 in0.0 mm
02:52 PM 54.4°F12.4°C 29.7°F-1.3°C 39% 4.0 mph SSE6.4 kmh SSE -- 29.84 in1010.5 mb 0.00 in0.0 mm 0.00 in0.0 mm 0.00 in0.0 mm
02:57 PM 54.4°F12.4°C 29.1°F-1.6°C 38% 3.0 mph SSW4.8 kmh SSW -- 29.84 in1010.5 mb 0.00 in0.0 mm 0.00 in0.0 mm 0.00 in0.0 mm
03:02 PM 54.4°F12.4°C 29.1°F-1.6°C 38% 2.0 mph SW3.2 kmh SW -- 29.84 in1010.5 mb 0.00 in0.0 mm 0.00 in0.0 mm 0.00 in0.0 mm
03:07 PM 54.5°F12.5°C 29.2°F-1.6°C 38% 7.0 mph W11.3 kmh W -- 29.84 in1010.5 mb 0.00 in0.0 mm 0.00 in0.0 mm 0.00 in0.0 mm
03:12 PM 54.6°F12.6°C 30.7°F-0.7°C 40% 7.0 mph S11.3 kmh S -- 29.84 in1010.5 mb 0.00 in0.0 mm 0.00 in0.0 mm 0.00 in0.0 mm
03:17 PM 54.4°F12.4°C 29.1°F-1.6°C 38% 2.0 mph ESE3.2 kmh ESE -- 29.84 in1010.5 mb 0.00 in0.0 mm 0.00 in0.0 mm 0.00 in0.0 mm
03:22 PM 54.5°F12.5°C 29.2°F-1.6°C 38% 10.0 mph W16.1 kmh W -- 29.85 in1010.8 mb 0.00 in0.0 mm 0.00 in0.0 mm 0.00 in0.0 mm
03:32 PM 54.5°F12.5°C 29.9°F-1.2°C 39% 8.0 mph SW12.9 kmh SW -- 29.85 in1010.8 mb 0.00 in0.0 mm 0.00 in0.0 mm 0.00 in0.0 mm
03:37 PM 54.5°F12.5°C 28.6°F-1.9°C 37% 8.0 mph SW12.9 kmh SW -- 29.85 in1010.8 mb 0.00 in0.0 mm 0.00 in0.0 mm 0.00 in0.0 mm
03:42 PM 54.5°F12.5°C 28.6°F-1.9°C 37% 6.0 mph WSW9.7 kmh WSW -- 29.85 in1010.8 mb 0.00 in0.0 mm 0.00 in0.0 mm 0.00 in0.0 mm
03:47 PM 54.5°F12.5°C 28.6°F-1.9°C 37% 7.0 mph SSE11.3 kmh SSE -- 29.85 in1010.8 mb 0.00 in0.0 mm 0.00 in0.0 mm 0.00 in0.0 mm
03:52 PM 54.5°F12.5°C 28.6°F-1.9°C 37% 9.0 mph WSW14.5 kmh WSW -- 29.85 in1010.8 mb 0.00 in0.0 mm 0.00 in0.0 mm 0.00 in0.0 mm
03:57 PM 54.3°F12.4°C 28.4°F-2.0°C 37% 5.0 mph SW8.0 kmh SW -- 29.85 in1010.8 mb 0.00 in0.0 mm 0.00 in0.0 mm 0.00 in0.0 mm
04:02 PM 54.1°F12.3°C 28.9°F-1.7°C 38% 6.0 mph S9.7 kmh S -- 29.85 in1010.8 mb 0.00 in0.0 mm 0.00 in0.0 mm 0.00 in0.0 mm
04:07 PM 54.0°F12.2°C 29.4°F-1.4°C 39% 3.0 mph S4.8 kmh S -- 29.85 in1010.8 mb 0.00 in0.0 mm 0.00 in0.0 mm 0.00 in0.0 mm
04:12 PM 53.9°F12.2°C 29.4°F-1.4°C 39% 6.0 mph SW9.7 kmh SW -- 29.85 in1010.8 mb 0.00 in0.0 mm 0.00 in0.0 mm 0.00 in0.0 mm
04:17 PM 53.7°F12.1°C 29.2°F-1.6°C 39% 4.0 mph SW6.4 kmh SW -- 29.85 in1010.8 mb 0.00 in0.0 mm 0.00 in0.0 mm 0.00 in0.0 mm
04:22 PM 53.6°F12.0°C 28.4°F-2.0°C 38% 4.0 mph SSW6.4 kmh SSW -- 29.85 in1010.8 mb 0.00 in0.0 mm 0.00 in0.0 mm 0.00 in0.0 mm
04:27 PM 53.5°F11.9°C 28.9°F-1.7°C 39% 9.0 mph S14.5 kmh S -- 29.85 in1010.8 mb 0.00 in0.0 mm 0.00 in0.0 mm 0.00 in0.0 mm
04:32 PM 53.5°F11.9°C 28.9°F-1.7°C 39% 9.0 mph SW14.5 kmh SW -- 29.85 in1010.8 mb 0.00 in0.0 mm 0.00 in0.0 mm 0.00 in0.0 mm
04:37 PM 53.3°F11.8°C 28.7°F-1.8°C 39% 3.0 mph S4.8 kmh S -- 29.85 in1010.8 mb 0.00 in0.0 mm 0.00 in0.0 mm 0.00 in0.0 mm
04:42 PM 53.2°F11.8°C 29.4°F-1.4°C 40% 5.0 mph SW8.0 kmh SW -- 29.85 in1010.8 mb 0.00 in0.0 mm 0.00 in0.0 mm 0.00 in0.0 mm
04:47 PM 53.0°F11.7°C 29.2°F-1.6°C 40% Calm Calm -- 29.85 in1010.8 mb 0.00 in0.0 mm 0.00 in0.0 mm 0.00 in0.0 mm
04:52 PM 52.8°F11.6°C 29.0°F-1.7°C 40% 6.0 mph WSW9.7 kmh WSW -- 29.85 in1010.8 mb 0.00 in0.0 mm 0.00 in0.0 mm 0.00 in0.0 mm
04:57 PM 52.6°F11.4°C 29.3°F-1.5°C 41% 8.0 mph S12.9 kmh S -- 29.85 in1010.8 mb 0.00 in0.0 mm 0.00 in0.0 mm 0.00 in0.0 mm
05:02 PM 52.6°F11.4°C 29.9°F-1.2°C 42% 2.0 mph SSW3.2 kmh SSW -- 29.86 in1011.2 mb 0.00 in0.0 mm 0.00 in0.0 mm 0.00 in0.0 mm
05:07 PM 52.3°F11.3°C 29.7°F-1.3°C 42% 2.0 mph S3.2 kmh S -- 29.85 in1010.8 mb 0.00 in0.0 mm 0.00 in0.0 mm 0.00 in0.0 mm
05:12 PM 52.0°F11.1°C 30.0°F-1.1°C 43% 3.0 mph S4.8 kmh S -- 29.85 in1010.8 mb 0.00 in0.0 mm 0.00 in0.0 mm 0.00 in0.0 mm
05:17 PM 51.9°F11.1°C 30.0°F-1.1°C 43% 4.0 mph SW6.4 kmh SW -- 29.85 in1010.8 mb 0.00 in0.0 mm 0.00 in0.0 mm 0.00 in0.0 mm
05:22 PM 51.6°F10.9°C 29.7°F-1.3°C 43% 1.0 mph SSE1.6 kmh SSE -- 29.85 in1010.8 mb 0.00 in0.0 mm 0.00 in0.0 mm 0.00 in0.0 mm
05:27 PM 51.4°F10.8°C 30.1°F-1.1°C 44% 2.0 mph SSW3.2 kmh SSW -- 29.86 in1011.2 mb 0.00 in0.0 mm 0.00 in0.0 mm 0.00 in0.0 mm
05:32 PM 51.1°F10.6°C 29.7°F-1.3°C 44% 3.0 mph SW4.8 kmh SW -- 29.85 in1010.8 mb 0.00 in0.0 mm 0.00 in0.0 mm 0.00 in0.0 mm
05:37 PM 50.7°F10.4°C 30.0°F-1.1°C 45% 1.0 mph S1.6 kmh S -- 29.86 in1011.2 mb 0.00 in0.0 mm 0.00 in0.0 mm 0.00 in0.0 mm
05:42 PM 50.5°F10.3°C 29.8°F-1.2°C 45% 6.0 mph SW9.7 kmh SW -- 29.86 in1011.2 mb 0.00 in0.0 mm 0.00 in0.0 mm 0.00 in0.0 mm
05:47 PM 50.4°F10.2°C 30.2°F-1.0°C 46% 3.0 mph S4.8 kmh S -- 29.86 in1011.2 mb 0.00 in0.0 mm 0.00 in0.0 mm 0.00 in0.0 mm
05:52 PM 50.0°F10.0°C 29.9°F-1.2°C 46% 2.0 mph SW3.2 kmh SW -- 29.86 in1011.2 mb 0.00 in0.0 mm 0.00 in0.0 mm 0.00 in0.0 mm
05:57 PM 49.9°F9.9°C 30.2°F-1.0°C 47% 2.0 mph S3.2 kmh S -- 29.86 in1011.2 mb 0.00 in0.0 mm 0.00 in0.0 mm 0.00 in0.0 mm
06:02 PM 49.7°F9.8°C 30.1°F-1.1°C 47% Calm Calm -- 29.86 in1011.2 mb 0.00 in0.0 mm 0.00 in0.0 mm 0.00 in0.0 mm
06:07 PM 49.4°F9.7°C 29.9°F-1.2°C 47% 2.0 mph WSW3.2 kmh WSW -- 29.86 in1011.2 mb 0.00 in0.0 mm 0.00 in0.0 mm 0.00 in0.0 mm
06:12 PM 49.3°F9.6°C 30.2°F-1.0°C 48% 3.0 mph S4.8 kmh S -- 29.86 in1011.2 mb 0.00 in0.0 mm 0.00 in0.0 mm 0.00 in0.0 mm
06:17 PM 49.1°F9.5°C 30.1°F-1.1°C 48% 1.0 mph SW1.6 kmh SW -- 29.86 in1011.2 mb 0.00 in0.0 mm 0.00 in0.0 mm 0.00 in0.0 mm
06:22 PM 48.9°F9.4°C 29.9°F-1.2°C 48% 3.0 mph WSW4.8 kmh WSW -- 29.86 in1011.2 mb 0.00 in0.0 mm 0.00 in0.0 mm 0.00 in0.0 mm
06:27 PM 48.7°F9.3°C 30.3°F-0.9°C 49% 2.0 mph S3.2 kmh S -- 29.86 in1011.2 mb 0.00 in0.0 mm 0.00 in0.0 mm 0.00 in0.0 mm
06:32 PM 48.5°F9.2°C 30.1°F-1.1°C 49% 2.0 mph WSW3.2 kmh WSW -- 29.86 in1011.2 mb 0.00 in0.0 mm 0.00 in0.0 mm 0.00 in0.0 mm
06:37 PM 48.3°F9.1°C 29.9°F-1.2°C 49% 4.0 mph W6.4 kmh W -- 29.86 in1011.2 mb 0.00 in0.0 mm 0.00 in0.0 mm 0.00 in0.0 mm
06:42 PM 48.1°F8.9°C 30.1°F-1.1°C 50% 2.0 mph NNW3.2 kmh NNW -- 29.86 in1011.2 mb 0.00 in0.0 mm 0.00 in0.0 mm 0.00 in0.0 mm
06:47 PM 48.0°F8.9°C 30.1°F-1.1°C 50% Calm Calm -- 29.87 in1011.5 mb 0.00 in0.0 mm 0.00 in0.0 mm 0.00 in0.0 mm
06:52 PM 47.7°F8.7°C 29.8°F-1.2°C 50% 3.0 mph WSW4.8 kmh WSW -- 29.87 in1011.5 mb 0.00 in0.0 mm 0.00 in0.0 mm 0.00 in0.0 mm
06:57 PM 47.6°F8.7°C 30.2°F-1.0°C 51% Calm Calm -- 29.87 in1011.5 mb 0.00 in0.0 mm 0.00 in0.0 mm 0.00 in0.0 mm
07:02 PM 47.3°F8.5°C 29.9°F-1.2°C 51% 2.0 mph SSW3.2 kmh SSW -- 29.87 in1011.5 mb 0.00 in0.0 mm 0.00 in0.0 mm 0.00 in0.0 mm
07:07 PM 47.3°F8.5°C 29.9°F-1.2°C 51% 2.0 mph WSW3.2 kmh WSW -- 29.87 in1011.5 mb 0.00 in0.0 mm 0.00 in0.0 mm 0.00 in0.0 mm
07:12 PM 47.1°F8.4°C 30.2°F-1.0°C 52% 1.0 mph S1.6 kmh S -- 29.87 in1011.5 mb 0.00 in0.0 mm 0.00 in0.0 mm 0.00 in0.0 mm
07:17 PM 47.0°F8.3°C 30.1°F-1.1°C 52% 1.0 mph S1.6 kmh S -- 29.87 in1011.5 mb 0.00 in0.0 mm 0.00 in0.0 mm 0.00 in0.0 mm
07:22 PM 46.7°F8.2°C 30.4°F-0.9°C 53% 3.0 mph WSW4.8 kmh WSW -- 29.87 in1011.5 mb 0.00 in0.0 mm 0.00 in0.0 mm 0.00 in0.0 mm
07:27 PM 46.4°F8.0°C 30.5°F-0.8°C 54% Calm Calm -- 29.87 in1011.5 mb 0.00 in0.0 mm 0.00 in0.0 mm 0.00 in0.0 mm
07:32 PM 46.2°F7.9°C 30.3°F-0.9°C 54% 3.0 mph NW4.8 kmh NW -- 29.87 in1011.5 mb 0.00 in0.0 mm 0.00 in0.0 mm 0.00 in0.0 mm
07:37 PM 46.4°F8.0°C 30.5°F-0.8°C 54% Calm Calm -- 29.87 in1011.5 mb 0.00 in0.0 mm 0.00 in0.0 mm 0.00 in0.0 mm
07:42 PM 46.2°F7.9°C 30.8°F-0.7°C 55% 1.0 mph SE1.6 kmh SE -- 29.88 in1011.9 mb 0.00 in0.0 mm 0.00 in0.0 mm 0.00 in0.0 mm
07:47 PM 46.2°F7.9°C 30.8°F-0.7°C 55% 2.0 mph WSW3.2 kmh WSW -- 29.88 in1011.9 mb 0.00 in0.0 mm 0.00 in0.0 mm 0.00 in0.0 mm
07:52 PM 45.9°F7.7°C 30.4°F-0.9°C 55% Calm Calm -- 29.88 in1011.9 mb 0.00 in0.0 mm 0.00 in0.0 mm 0.00 in0.0 mm
07:57 PM 45.7°F7.6°C 30.3°F-0.9°C 55% Calm Calm -- 29.88 in1011.9 mb 0.00 in0.0 mm 0.00 in0.0 mm 0.00 in0.0 mm
08:02 PM 45.5°F7.5°C 29.7°F-1.3°C 54% 2.0 mph S3.2 kmh S -- 29.88 in1011.9 mb 0.00 in0.0 mm 0.00 in0.0 mm 0.00 in0.0 mm
08:07 PM 45.3°F7.4°C 29.5°F-1.4°C 54% 2.0 mph W3.2 kmh W -- 29.88 in1011.9 mb 0.00 in0.0 mm 0.00 in0.0 mm 0.00 in0.0 mm
08:12 PM 45.2°F7.3°C 29.3°F-1.5°C 54% Calm Calm -- 29.88 in1011.9 mb 0.00 in0.0 mm 0.00 in0.0 mm 0.00 in0.0 mm
08:17 PM 45.2°F7.3°C 28.4°F-2.0°C 52% 2.0 mph SW3.2 kmh SW -- 29.88 in1011.9 mb 0.00 in0.0 mm 0.00 in0.0 mm 0.00 in0.0 mm
08:22 PM 45.4°F7.4°C 29.0°F-1.7°C 53% 3.0 mph SW4.8 kmh SW -- 29.89 in1012.2 mb 0.00 in0.0 mm 0.00 in0.0 mm 0.00 in0.0 mm
08:27 PM 45.3°F7.4°C 28.6°F-1.9°C 52% 1.0 mph SW1.6 kmh SW -- 29.89 in1012.2 mb 0.00 in0.0 mm 0.00 in0.0 mm 0.00 in0.0 mm
08:32 PM 45.1°F7.3°C 27.9°F-2.3°C 51% 3.0 mph NW4.8 kmh NW -- 29.89 in1012.2 mb 0.00 in0.0 mm 0.00 in0.0 mm 0.00 in0.0 mm
08:37 PM 45.0°F7.2°C 28.2°F-2.1°C 52% 2.0 mph NW3.2 kmh NW -- 29.89 in1012.2 mb 0.00 in0.0 mm 0.00 in0.0 mm 0.00 in0.0 mm
08:42 PM 44.9°F7.2°C 27.3°F-2.6°C 50% 4.0 mph W6.4 kmh W -- 29.89 in1012.2 mb 0.00 in0.0 mm 0.00 in0.0 mm 0.00 in0.0 mm
08:47 PM 45.1°F7.3°C 26.9°F-2.8°C 49% 2.0 mph WSW3.2 kmh WSW -- 29.89 in1012.2 mb 0.00 in0.0 mm 0.00 in0.0 mm 0.00 in0.0 mm
08:52 PM 45.1°F7.3°C 26.9°F-2.8°C 49% 4.0 mph NNW6.4 kmh NNW -- 29.90 in1012.5 mb 0.00 in0.0 mm 0.00 in0.0 mm 0.00 in0.0 mm
08:57 PM 45.1°F7.3°C 25.9°F-3.4°C 47% 1.0 mph S1.6 kmh S -- 29.89 in1012.2 mb 0.00 in0.0 mm 0.00 in0.0 mm 0.00 in0.0 mm
09:02 PM 45.1°F7.3°C 27.4°F-2.6°C 50% 2.0 mph SSW3.2 kmh SSW -- 29.89 in1012.2 mb 0.00 in0.0 mm 0.00 in0.0 mm 0.00 in0.0 mm
09:07 PM 44.8°F7.1°C 26.6°F-3.0°C 49% 1.0 mph SE1.6 kmh SE -- 29.90 in1012.5 mb 0.00 in0.0 mm 0.00 in0.0 mm 0.00 in0.0 mm
09:12 PM 44.6°F7.0°C 26.9°F-2.8°C 50% 5.0 mph NNW8.0 kmh NNW -- 29.90 in1012.5 mb 0.00 in0.0 mm 0.00 in0.0 mm 0.00 in0.0 mm
09:17 PM 44.6°F7.0°C 27.4°F-2.6°C 51% 5.0 mph NW8.0 kmh NW -- 29.90 in1012.5 mb 0.00 in0.0 mm 0.00 in0.0 mm 0.00 in0.0 mm
09:22 PM 44.8°F7.1°C 27.1°F-2.7°C 50% 1.0 mph S1.6 kmh S -- 29.90 in1012.5 mb 0.00 in0.0 mm 0.00 in0.0 mm 0.00 in0.0 mm
09:27 PM 44.6°F7.0°C 26.9°F-2.8°C 50% 2.0 mph NW3.2 kmh NW -- 29.90 in1012.5 mb 0.00 in0.0 mm 0.00 in0.0 mm 0.00 in0.0 mm
09:32 PM 44.4°F6.9°C 27.2°F-2.7°C 51% 1.0 mph SE1.6 kmh SE -- 29.90 in1012.5 mb 0.00 in0.0 mm 0.00 in0.0 mm 0.00 in0.0 mm
09:37 PM 43.9°F6.6°C 26.7°F-2.9°C 51% 2.0 mph E3.2 kmh E -- 29.90 in1012.5 mb 0.00 in0.0 mm 0.00 in0.0 mm 0.00 in0.0 mm
09:42 PM 43.5°F6.4°C 26.4°F-3.1°C 51% 1.0 mph S1.6 kmh S -- 29.89 in1012.2 mb 0.00 in0.0 mm 0.00 in0.0 mm 0.00 in0.0 mm
09:47 PM 42.9°F6.1°C 26.4°F-3.1°C 52% 1.0 mph ESE1.6 kmh ESE -- 29.90 in1012.5 mb 0.00 in0.0 mm 0.00 in0.0 mm 0.00 in0.0 mm
09:52 PM 42.7°F5.9°C 27.0°F-2.8°C 54% 6.0 mph NW9.7 kmh NW -- 29.90 in1012.5 mb 0.00 in0.0 mm 0.00 in0.0 mm 0.00 in0.0 mm
09:57 PM 42.5°F5.8°C 26.8°F-2.9°C 54% 2.0 mph N3.2 kmh N -- 29.90 in1012.5 mb 0.00 in0.0 mm 0.00 in0.0 mm 0.00 in0.0 mm
10:02 PM 42.4°F5.8°C 27.2°F-2.7°C 55% 2.0 mph NE3.2 kmh NE -- 29.90 in1012.5 mb 0.00 in0.0 mm 0.00 in0.0 mm 0.00 in0.0 mm
10:07 PM 42.2°F5.7°C 27.1°F-2.7°C 55% 2.0 mph E3.2 kmh E -- 29.90 in1012.5 mb 0.00 in0.0 mm 0.00 in0.0 mm 0.00 in0.0 mm
10:12 PM 42.0°F5.6°C 27.4°F-2.6°C 56% 2.0 mph ENE3.2 kmh ENE -- 29.90 in1012.5 mb 0.00 in0.0 mm 0.00 in0.0 mm 0.00 in0.0 mm
10:17 PM 41.9°F5.5°C 27.6°F-2.4°C 57% 2.0 mph NE3.2 kmh NE -- 29.90 in1012.5 mb 0.00 in0.0 mm 0.00 in0.0 mm 0.00 in0.0 mm
10:22 PM 41.5°F5.3°C 27.7°F-2.4°C 58% 2.0 mph N3.2 kmh N -- 29.90 in1012.5 mb 0.00 in0.0 mm 0.00 in0.0 mm 0.00 in0.0 mm
10:27 PM 41.2°F5.1°C 27.4°F-2.6°C 58% Calm Calm -- 29.91 in1012.9 mb 0.00 in0.0 mm 0.00 in0.0 mm 0.00 in0.0 mm
10:32 PM 41.0°F5.0°C 27.2°F-2.7°C 58% 1.0 mph SSE1.6 kmh SSE -- 29.91 in1012.9 mb 0.00 in0.0 mm 0.00 in0.0 mm 0.00 in0.0 mm
10:37 PM 40.6°F4.8°C 27.3°F-2.6°C 59% 3.0 mph NW4.8 kmh NW -- 29.91 in1012.9 mb 0.00 in0.0 mm 0.00 in0.0 mm 0.00 in0.0 mm
10:42 PM 40.9°F4.9°C 27.9°F-2.3°C 60% 1.0 mph ESE1.6 kmh ESE -- 29.91 in1012.9 mb 0.00 in0.0 mm 0.00 in0.0 mm 0.00 in0.0 mm
10:47 PM 40.7°F4.8°C 27.3°F-2.6°C 59% 1.0 mph SSW1.6 kmh SSW -- 29.91 in1012.9 mb 0.00 in0.0 mm 0.00 in0.0 mm 0.00 in0.0 mm
10:52 PM 40.5°F4.7°C 27.5°F-2.5°C 60% 2.0 mph NW3.2 kmh NW -- 29.91 in1012.9 mb 0.00 in0.0 mm 0.00 in0.0 mm 0.00 in0.0 mm
10:57 PM 40.5°F4.7°C 27.5°F-2.5°C 60% 3.0 mph WSW4.8 kmh WSW -- 29.91 in1012.9 mb 0.00 in0.0 mm 0.00 in0.0 mm 0.00 in0.0 mm
11:02 PM 40.6°F4.8°C 27.7°F-2.4°C 60% 3.0 mph WNW4.8 kmh WNW -- 29.91 in1012.9 mb 0.00 in0.0 mm 0.00 in0.0 mm 0.00 in0.0 mm
11:07 PM 40.6°F4.8°C 27.7°F-2.4°C 60% 1.0 mph S1.6 kmh S -- 29.90 in1012.5 mb 0.00 in0.0 mm 0.00 in0.0 mm 0.00 in0.0 mm
11:12 PM 40.8°F4.9°C 27.9°F-2.3°C 60% 2.0 mph W3.2 kmh W -- 29.90 in1012.5 mb 0.00 in0.0 mm 0.00 in0.0 mm 0.00 in0.0 mm
11:17 PM 40.7°F4.8°C 27.7°F-2.4°C 60% 4.0 mph NE6.4 kmh NE -- 29.90 in1012.5 mb 0.00 in0.0 mm 0.00 in0.0 mm 0.00 in0.0 mm
11:22 PM 40.6°F4.8°C 27.7°F-2.4°C 60% 3.0 mph WSW4.8 kmh WSW -- 29.90 in1012.5 mb 0.00 in0.0 mm 0.00 in0.0 mm 0.00 in0.0 mm
11:27 PM 40.9°F4.9°C 27.9°F-2.3°C 60% Calm Calm -- 29.90 in1012.5 mb 0.00 in0.0 mm 0.00 in0.0 mm 0.00 in0.0 mm
11:32 PM 40.9°F4.9°C 27.9°F-2.3°C 60% 3.0 mph NW4.8 kmh NW -- 29.91 in1012.9 mb 0.00 in0.0 mm 0.00 in0.0 mm 0.00 in0.0 mm
11:37 PM 41.2°F5.1°C 28.2°F-2.1°C 60% 4.0 mph NW6.4 kmh NW -- 29.91 in1012.9 mb 0.00 in0.0 mm 0.00 in0.0 mm 0.00 in0.0 mm
11:42 PM 41.2°F5.1°C 28.2°F-2.1°C 60% 1.0 mph SE1.6 kmh SE -- 29.91 in1012.9 mb 0.00 in0.0 mm 0.00 in0.0 mm 0.00 in0.0 mm
11:47 PM 41.1°F5.1°C 28.2°F-2.1°C 60% 2.0 mph WSW3.2 kmh WSW -- 29.91 in1012.9 mb 0.00 in0.0 mm 0.00 in0.0 mm 0.00 in0.0 mm
11:52 PM 40.9°F4.9°C 27.9°F-2.3°C 60% 2.0 mph WSW3.2 kmh WSW -- 29.91 in1012.9 mb 0.00 in0.0 mm 0.00 in0.0 mm 0.00 in0.0 mm
11:57 PM 40.7°F4.8°C 27.7°F-2.4°C 60% 2.0 mph WSW3.2 kmh WSW -- 29.91 in1012.9 mb 0.00 in0.0 mm 0.00 in0.0 mm 0.00 in0.0 mm